createdAt,value
2017-08-24T00:00:01.574Z,17.20
2017-08-24T00:02:29.193Z,17.20
2017-08-24T00:04:56.729Z,17.10
2017-08-24T00:07:24.301Z,17.20
2017-08-24T00:09:51.850Z,17.20
2017-08-24T00:12:19.445Z,17.00
2017-08-24T00:14:47.005Z,17.00
2017-08-24T00:17:14.543Z,17.10
2017-08-24T00:19:42.099Z,17.00
2017-08-24T00:22:09.692Z,17.00
2017-08-24T00:24:37.247Z,17.00
2017-08-24T00:27:04.778Z,17.00
2017-08-24T00:29:32.340Z,17.00
2017-08-24T00:31:59.889Z,16.90
2017-08-24T00:34:27.436Z,16.90
2017-08-24T00:36:55.041Z,16.90
2017-08-24T00:39:22.601Z,16.90
2017-08-24T00:41:50.133Z,16.90
2017-08-24T00:44:17.698Z,16.80
2017-08-24T00:46:45.245Z,16.90
2017-08-24T00:49:12.796Z,16.90
2017-08-24T00:51:40.360Z,16.80
2017-08-24T00:54:08.665Z,16.80
2017-08-24T00:56:36.215Z,16.80
2017-08-24T00:59:03.750Z,16.80
2017-08-24T01:01:31.321Z,16.70
2017-08-24T01:03:58.857Z,16.70
2017-08-24T01:06:26.406Z,16.70
2017-08-24T01:08:53.937Z,16.60
2017-08-24T01:11:21.490Z,16.80
2017-08-24T01:13:49.055Z,16.70
2017-08-24T01:16:16.609Z,16.60
2017-08-24T01:18:44.145Z,16.60
2017-08-24T01:21:11.689Z,16.60
2017-08-24T01:23:39.266Z,16.60
2017-08-24T01:26:06.833Z,16.50
2017-08-24T01:28:34.385Z,16.50
2017-08-24T01:31:01.923Z,16.50
2017-08-24T01:33:29.536Z,16.60
2017-08-24T01:35:57.057Z,16.50
2017-08-24T01:38:24.587Z,16.40
2017-08-24T01:40:52.140Z,16.30
2017-08-24T01:43:19.725Z,16.30
2017-08-24T01:45:47.281Z,16.30
2017-08-24T01:48:14.832Z,16.40
2017-08-24T01:50:42.399Z,16.30
2017-08-24T01:53:09.948Z,16.30
2017-08-24T01:55:37.472Z,16.30
2017-08-24T01:58:05.068Z,16.20
2017-08-24T02:00:32.594Z,16.20
2017-08-24T02:03:00.153Z,16.20
2017-08-24T02:05:27.685Z,16.20
2017-08-24T02:07:55.206Z,16.20
2017-08-24T02:10:22.836Z,16.30
2017-08-24T02:12:50.390Z,16.30
2017-08-24T02:15:18.233Z,16.30
2017-08-24T02:17:45.761Z,16.30
2017-08-24T02:20:13.325Z,16.20
2017-08-24T02:22:40.878Z,16.20
2017-08-24T02:25:08.425Z,16.10
2017-08-24T02:27:35.956Z,16.00
2017-08-24T02:30:03.509Z,16.00
2017-08-24T02:32:31.054Z,16.00
2017-08-24T02:34:58.588Z,16.00
2017-08-24T02:37:26.142Z,15.90
2017-08-24T02:39:53.679Z,15.90
2017-08-24T02:42:21.207Z,15.90
2017-08-24T02:44:48.742Z,15.90
2017-08-24T02:47:16.302Z,15.90
2017-08-24T02:49:43.852Z,15.90
2017-08-24T02:52:11.385Z,15.90
2017-08-24T02:54:38.934Z,15.90
2017-08-24T02:57:06.469Z,15.90
2017-08-24T02:59:34.016Z,16.00
2017-08-24T03:02:01.544Z,16.20
2017-08-24T03:04:29.106Z,16.10
2017-08-24T03:06:56.634Z,16.00
2017-08-24T03:09:24.194Z,15.90
2017-08-24T03:11:51.738Z,15.90
2017-08-24T03:14:19.313Z,15.90
2017-08-24T03:16:46.860Z,16.00
2017-08-24T03:19:14.389Z,16.10
2017-08-24T03:21:41.949Z,16.30
2017-08-24T03:24:09.476Z,16.30
2017-08-24T03:26:37.020Z,16.50
2017-08-24T03:29:04.557Z,16.60
2017-08-24T03:31:32.106Z,16.80
2017-08-24T03:33:59.661Z,16.70
2017-08-24T03:36:27.215Z,16.70
2017-08-24T03:38:54.768Z,16.60
2017-08-24T03:41:22.324Z,16.60
2017-08-24T03:43:49.909Z,16.60
2017-08-24T03:46:17.445Z,16.60
2017-08-24T03:48:45.025Z,16.50
2017-08-24T03:51:12.588Z,16.60
2017-08-24T03:53:40.142Z,16.50
2017-08-24T03:56:07.680Z,16.60
2017-08-24T03:58:35.263Z,16.50
2017-08-24T04:01:02.823Z,16.60
2017-08-24T04:03:30.361Z,16.60
2017-08-24T04:05:57.963Z,16.50
2017-08-24T04:08:25.494Z,16.50
2017-08-24T04:10:53.057Z,16.40
2017-08-24T04:13:20.585Z,16.30
2017-08-24T04:15:48.172Z,16.40
2017-08-24T04:18:15.693Z,16.30
2017-08-24T04:20:43.401Z,16.30
2017-08-24T04:23:10.959Z,16.30
2017-08-24T04:25:38.490Z,16.20
2017-08-24T04:28:06.032Z,16.20
2017-08-24T04:30:33.569Z,16.20
2017-08-24T04:33:01.113Z,16.10
2017-08-24T04:35:28.642Z,16.10
2017-08-24T04:37:56.173Z,16.10
2017-08-24T04:40:23.725Z,16.10
2017-08-24T04:42:51.266Z,16.10
2017-08-24T04:45:18.824Z,16.10
2017-08-24T04:47:46.357Z,16.10
2017-08-24T04:50:13.906Z,16.10
2017-08-24T04:52:41.437Z,16.20
2017-08-24T04:55:08.974Z,16.30
2017-08-24T04:57:36.517Z,16.30
2017-08-24T05:00:04.074Z,16.30
2017-08-24T05:02:31.624Z,16.40
2017-08-24T05:04:59.158Z,16.50
2017-08-24T05:07:26.709Z,16.50
2017-08-24T05:09:54.240Z,16.60
2017-08-24T05:12:21.790Z,16.60
2017-08-24T05:14:49.314Z,16.70
2017-08-24T05:17:16.850Z,16.80
2017-08-24T05:19:44.419Z,16.80
2017-08-24T05:22:11.949Z,17.00
2017-08-24T05:24:40.267Z,17.10
2017-08-24T05:27:07.830Z,17.10
2017-08-24T05:29:35.375Z,17.30
2017-08-24T05:32:02.901Z,17.40
2017-08-24T05:34:31.218Z,17.50
2017-08-24T05:36:58.745Z,17.50
2017-08-24T05:39:26.292Z,17.60
2017-08-24T05:41:53.822Z,17.60
2017-08-24T05:44:21.361Z,17.70
2017-08-24T05:46:48.905Z,17.80
2017-08-24T05:49:16.465Z,17.90
2017-08-24T05:51:43.989Z,18.00
2017-08-24T05:54:11.537Z,18.10
2017-08-24T05:56:39.091Z,18.20
2017-08-24T05:59:06.635Z,18.30
2017-08-24T06:01:34.199Z,18.50
2017-08-24T06:04:01.727Z,18.60
2017-08-24T06:06:29.289Z,18.80
2017-08-24T06:08:56.819Z,19.00
2017-08-24T06:11:24.395Z,19.20
2017-08-24T06:13:51.921Z,19.20
2017-08-24T06:16:19.460Z,19.40
2017-08-24T06:18:47.022Z,19.50
2017-08-24T06:21:14.577Z,19.80
2017-08-24T06:23:42.124Z,19.90
2017-08-24T06:26:09.665Z,19.90
2017-08-24T06:28:37.213Z,19.80
2017-08-24T06:31:04.763Z,20.00
2017-08-24T06:33:32.312Z,20.10
2017-08-24T06:35:59.844Z,20.20
2017-08-24T06:38:27.398Z,20.20
2017-08-24T06:40:54.937Z,20.30
2017-08-24T06:43:22.468Z,20.30
2017-08-24T06:45:50.013Z,20.30
2017-08-24T06:48:17.653Z,20.40
2017-08-24T06:50:45.256Z,20.40
2017-08-24T06:53:12.836Z,20.40
2017-08-24T06:55:40.392Z,20.40
2017-08-24T06:58:07.954Z,20.50
2017-08-24T07:00:35.480Z,20.50
2017-08-24T07:03:03.593Z,20.70
2017-08-24T07:05:31.126Z,20.70
2017-08-24T07:07:58.689Z,20.80
2017-08-24T07:10:26.233Z,21.20
2017-08-24T07:12:53.780Z,22.10
2017-08-24T07:15:21.306Z,22.40
2017-08-24T07:17:48.889Z,22.30
2017-08-24T07:20:16.450Z,22.20
2017-08-24T07:22:43.996Z,22.10
2017-08-24T07:25:11.575Z,21.70
2017-08-24T07:27:39.100Z,22.30
2017-08-24T07:30:06.626Z,23.20
2017-08-24T07:32:34.188Z,23.90
2017-08-24T07:35:01.708Z,24.80
2017-08-24T07:37:29.261Z,24.80
2017-08-24T07:39:56.798Z,24.60
2017-08-24T07:42:24.345Z,24.40
2017-08-24T07:44:51.887Z,23.70
2017-08-24T07:47:19.458Z,23.00
2017-08-24T07:49:46.983Z,23.80
2017-08-24T07:52:14.520Z,24.40
2017-08-24T07:54:42.064Z,24.60
2017-08-24T07:57:09.596Z,25.40
2017-08-24T07:59:37.150Z,26.20
2017-08-24T08:02:04.681Z,27.00
2017-08-24T08:04:32.237Z,28.80
2017-08-24T08:06:59.777Z,29.70
2017-08-24T08:09:27.311Z,29.00
2017-08-24T08:11:54.858Z,28.50
2017-08-24T08:14:22.386Z,27.80
2017-08-24T08:16:49.937Z,27.10
2017-08-24T08:19:17.457Z,26.50
2017-08-24T08:21:45.011Z,26.10
2017-08-24T08:24:12.852Z,25.70
2017-08-24T08:26:40.397Z,25.80
2017-08-24T08:29:07.923Z,25.60
2017-08-24T08:31:35.474Z,25.40
2017-08-24T08:34:03.032Z,25.40
2017-08-24T08:36:30.575Z,27.00
2017-08-24T08:38:58.137Z,27.60
2017-08-24T08:41:25.671Z,27.90
2017-08-24T08:43:53.236Z,27.30
2017-08-24T08:46:20.774Z,27.70
2017-08-24T08:48:48.306Z,28.30
2017-08-24T08:51:15.847Z,29.40
2017-08-24T08:53:43.428Z,30.80
2017-08-24T08:56:10.976Z,31.70
2017-08-24T08:58:38.513Z,31.10
2017-08-24T09:01:06.066Z,30.40
2017-08-24T09:03:33.588Z,31.10
2017-08-24T09:06:01.144Z,31.80
2017-08-24T09:08:28.669Z,32.00
2017-08-24T09:10:56.207Z,33.30
2017-08-24T09:13:23.764Z,32.20
2017-08-24T09:15:51.295Z,32.90
2017-08-24T09:18:18.845Z,32.10
2017-08-24T09:20:46.364Z,32.60
2017-08-24T09:23:13.901Z,33.60
2017-08-24T09:25:41.429Z,33.70
2017-08-24T09:28:08.971Z,33.20
2017-08-24T09:30:36.531Z,32.40
2017-08-24T09:33:04.824Z,34.00
2017-08-24T09:35:32.384Z,33.90
2017-08-24T09:37:59.943Z,35.00
2017-08-24T09:40:27.476Z,33.70
2017-08-24T09:42:55.001Z,34.80
2017-08-24T09:45:22.545Z,34.90
2017-08-24T09:47:50.083Z,34.70
2017-08-24T09:50:17.898Z,35.90
2017-08-24T09:52:45.457Z,35.30
2017-08-24T09:55:12.983Z,34.70
2017-08-24T09:57:40.552Z,35.30
2017-08-24T10:00:08.115Z,35.60
2017-08-24T10:02:35.664Z,34.70
2017-08-24T10:05:03.224Z,33.40
2017-08-24T10:07:30.786Z,32.10
2017-08-24T10:09:58.312Z,31.10
2017-08-24T10:12:26.767Z,30.20
2017-08-24T10:14:54.310Z,29.10
2017-08-24T10:17:21.850Z,29.30
2017-08-24T10:19:49.394Z,29.20
2017-08-24T10:22:16.928Z,30.30
2017-08-24T10:24:44.492Z,31.70
2017-08-24T10:27:12.019Z,31.50
2017-08-24T10:29:39.563Z,31.70
2017-08-24T10:32:07.136Z,32.00
2017-08-24T10:34:34.665Z,31.40
2017-08-24T10:37:02.205Z,32.00
2017-08-24T10:39:29.736Z,33.70
2017-08-24T10:41:57.285Z,33.80
2017-08-24T10:44:24.811Z,34.00
2017-08-24T10:46:52.358Z,33.70
2017-08-24T10:49:19.905Z,32.50
2017-08-24T10:51:47.442Z,31.00
2017-08-24T10:54:15.001Z,30.80
2017-08-24T10:56:42.529Z,30.70
2017-08-24T10:59:10.078Z,30.30
2017-08-24T11:01:37.612Z,29.80
2017-08-24T11:04:05.176Z,29.30
2017-08-24T11:06:32.717Z,29.10
2017-08-24T11:09:00.251Z,29.70
2017-08-24T11:11:27.814Z,30.70
2017-08-24T11:13:55.329Z,31.80
2017-08-24T11:16:22.885Z,31.50
2017-08-24T11:18:50.417Z,30.70
2017-08-24T11:21:17.978Z,30.10
2017-08-24T11:23:45.508Z,29.70
2017-08-24T11:26:13.111Z,29.10
2017-08-24T11:28:40.660Z,29.10
2017-08-24T11:31:08.189Z,28.90
2017-08-24T11:33:36.503Z,29.40
2017-08-24T11:36:04.039Z,29.50
2017-08-24T11:38:31.593Z,29.20
2017-08-24T11:40:59.154Z,29.10
2017-08-24T11:43:26.724Z,29.00
2017-08-24T11:45:54.288Z,29.00
2017-08-24T11:48:24.338Z,29.50
2017-08-24T11:50:51.900Z,29.80
2017-08-24T11:53:19.426Z,30.50
2017-08-24T11:55:46.975Z,30.20
2017-08-24T11:58:14.520Z,29.40
2017-08-24T12:00:42.070Z,28.90
2017-08-24T12:03:09.640Z,28.40
2017-08-24T12:05:37.164Z,28.10
2017-08-24T12:08:04.726Z,27.90
2017-08-24T12:10:33.019Z,28.30
2017-08-24T12:13:00.583Z,28.30
2017-08-24T12:15:28.258Z,28.30
2017-08-24T12:17:55.812Z,28.20
2017-08-24T12:20:23.349Z,28.00
2017-08-24T12:22:50.883Z,28.50
2017-08-24T12:25:18.473Z,28.40
2017-08-24T12:27:46.004Z,28.50
2017-08-24T12:30:13.573Z,28.90
2017-08-24T12:32:41.129Z,28.70
2017-08-24T12:35:08.661Z,28.80
2017-08-24T12:37:36.193Z,28.80
2017-08-24T12:40:03.732Z,28.50
2017-08-24T12:42:31.266Z,28.40
2017-08-24T12:44:58.828Z,28.20
2017-08-24T12:47:26.356Z,28.30
2017-08-24T12:49:53.906Z,28.00
2017-08-24T12:52:21.451Z,27.90
2017-08-24T12:54:48.991Z,28.10
2017-08-24T12:57:16.541Z,28.10
2017-08-24T12:59:44.061Z,27.70
2017-08-24T13:02:11.613Z,27.80
2017-08-24T13:04:39.165Z,28.00
2017-08-24T13:07:06.715Z,28.40
2017-08-24T13:09:34.275Z,28.20
2017-08-24T13:12:01.823Z,28.40
2017-08-24T13:14:29.345Z,29.10
2017-08-24T13:16:56.877Z,29.40
2017-08-24T13:19:24.437Z,29.30
2017-08-24T13:21:51.982Z,29.70
2017-08-24T13:24:19.568Z,30.00
2017-08-24T13:26:47.094Z,30.20
2017-08-24T13:29:14.639Z,30.30
2017-08-24T13:31:42.202Z,30.50
2017-08-24T13:34:09.748Z,29.90
2017-08-24T13:36:37.305Z,30.00
2017-08-24T13:39:04.863Z,30.10
2017-08-24T13:41:32.450Z,30.20
2017-08-24T13:43:59.984Z,30.40
2017-08-24T13:46:27.996Z,30.10
2017-08-24T13:48:55.541Z,29.60
2017-08-24T13:51:23.079Z,28.90
2017-08-24T13:53:50.641Z,28.80
2017-08-24T13:56:18.197Z,28.60
2017-08-24T13:58:45.733Z,28.70
2017-08-24T14:01:13.295Z,29.00
2017-08-24T14:03:40.845Z,29.40
2017-08-24T14:06:08.383Z,29.60
2017-08-24T14:08:35.949Z,30.00
2017-08-24T14:11:03.493Z,30.20
2017-08-24T14:13:31.050Z,30.40
2017-08-24T14:15:58.606Z,30.50
2017-08-24T14:18:26.154Z,30.50
2017-08-24T14:20:53.750Z,30.10
2017-08-24T14:23:21.290Z,30.10
2017-08-24T14:25:48.865Z,30.30
2017-08-24T14:28:16.404Z,30.30
2017-08-24T14:30:43.973Z,30.30
2017-08-24T14:33:11.492Z,30.20
2017-08-24T14:35:39.029Z,30.30
2017-08-24T14:38:06.593Z,29.80
2017-08-24T14:40:34.121Z,29.70
2017-08-24T14:43:01.925Z,29.50
2017-08-24T14:45:29.460Z,29.30
2017-08-24T14:47:57.022Z,29.10
2017-08-24T14:50:24.582Z,28.90
2017-08-24T14:52:52.124Z,28.90
2017-08-24T14:55:19.648Z,28.90
2017-08-24T14:57:47.203Z,28.70
2017-08-24T15:00:14.743Z,28.80
2017-08-24T15:02:42.300Z,28.60
2017-08-24T15:05:09.833Z,28.50
2017-08-24T15:07:37.357Z,28.30
2017-08-24T15:10:04.908Z,28.30
2017-08-24T15:12:32.460Z,28.40
2017-08-24T15:15:00.011Z,28.30
2017-08-24T15:17:27.544Z,28.20
2017-08-24T15:19:55.937Z,28.10
2017-08-24T15:22:23.464Z,28.00
2017-08-24T15:24:50.993Z,27.90
2017-08-24T15:27:18.552Z,27.70
2017-08-24T15:29:46.089Z,27.50
2017-08-24T15:32:13.668Z,27.50
2017-08-24T15:34:41.211Z,27.40
2017-08-24T15:37:08.764Z,27.40
2017-08-24T15:39:36.298Z,27.30
2017-08-24T15:42:03.864Z,27.30
2017-08-24T15:44:31.393Z,27.30
2017-08-24T15:46:58.918Z,27.40
2017-08-24T15:49:26.466Z,27.40
2017-08-24T15:51:54.012Z,27.20
2017-08-24T15:54:21.557Z,27.00
2017-08-24T15:56:49.106Z,26.90
2017-08-24T15:59:16.678Z,26.80
2017-08-24T16:01:44.234Z,26.60
2017-08-24T16:04:11.777Z,26.60
2017-08-24T16:06:39.318Z,26.40
2017-08-24T16:09:06.875Z,26.30
2017-08-24T16:11:35.352Z,26.30
2017-08-24T16:14:02.917Z,26.10
2017-08-24T16:16:30.480Z,26.10
2017-08-24T16:18:58.061Z,26.00
2017-08-24T16:21:25.634Z,26.00
2017-08-24T16:23:53.221Z,25.90
2017-08-24T16:26:20.773Z,25.90
2017-08-24T16:28:48.314Z,25.90
2017-08-24T16:31:15.875Z,25.80
2017-08-24T16:33:43.401Z,25.70
2017-08-24T16:36:10.944Z,25.60
2017-08-24T16:38:38.485Z,25.50
2017-08-24T16:41:06.045Z,25.40
2017-08-24T16:43:33.589Z,25.40
2017-08-24T16:46:01.134Z,25.40
2017-08-24T16:48:28.713Z,25.30
2017-08-24T16:50:56.264Z,25.10
2017-08-24T16:53:23.813Z,24.90
2017-08-24T16:55:51.361Z,24.80
2017-08-24T16:58:18.923Z,24.80
2017-08-24T17:00:46.449Z,24.70
2017-08-24T17:03:14.005Z,24.60
2017-08-24T17:05:41.545Z,24.60
2017-08-24T17:08:09.087Z,24.50
2017-08-24T17:10:36.625Z,24.40
2017-08-24T17:13:04.169Z,24.40
2017-08-24T17:15:31.731Z,24.40
2017-08-24T17:17:59.285Z,24.30
2017-08-24T17:20:26.841Z,24.30
2017-08-24T17:22:54.390Z,24.20
2017-08-24T17:25:21.957Z,24.30
2017-08-24T17:27:49.492Z,24.10
2017-08-24T17:30:17.031Z,24.10
2017-08-24T17:32:44.585Z,24.00
2017-08-24T17:35:12.126Z,24.00
2017-08-24T17:37:39.649Z,24.00
2017-08-24T17:40:07.186Z,23.80
2017-08-24T17:42:34.764Z,23.80
2017-08-24T17:45:02.318Z,23.70
2017-08-24T17:47:34.574Z,23.80
2017-08-24T17:50:02.110Z,23.80
2017-08-24T17:52:29.671Z,23.70
2017-08-24T17:54:57.201Z,23.70
2017-08-24T17:57:24.870Z,23.60
2017-08-24T17:59:52.457Z,23.50
2017-08-24T18:02:19.984Z,23.30
2017-08-24T18:04:47.533Z,23.30
2017-08-24T18:07:15.064Z,23.20
2017-08-24T18:09:42.647Z,23.00
2017-08-24T18:12:10.168Z,22.80
2017-08-24T18:14:37.723Z,22.70
2017-08-24T18:17:05.283Z,22.60
2017-08-24T18:19:32.813Z,22.50
2017-08-24T18:22:00.357Z,22.40
2017-08-24T18:24:27.926Z,22.30
2017-08-24T18:26:55.489Z,22.20
2017-08-24T18:29:23.057Z,22.10
2017-08-24T18:31:50.708Z,22.10
2017-08-24T18:34:18.273Z,22.00
2017-08-24T18:36:45.845Z,21.90
2017-08-24T18:39:13.383Z,21.80
2017-08-24T18:41:40.921Z,21.70
2017-08-24T18:44:08.476Z,21.50
2017-08-24T18:46:35.998Z,21.40
2017-08-24T18:49:03.608Z,21.40
2017-08-24T18:51:31.184Z,21.50
2017-08-24T18:53:59.433Z,21.40
2017-08-24T18:56:28.647Z,21.20
2017-08-24T18:58:56.940Z,21.20
2017-08-24T19:01:25.222Z,21.20
2017-08-24T19:03:53.448Z,21.10
2017-08-24T19:06:21.242Z,21.10
2017-08-24T19:08:49.786Z,20.90
2017-08-24T19:11:17.596Z,20.90
2017-08-24T19:13:45.267Z,20.90
2017-08-24T19:16:13.165Z,20.80
2017-08-24T19:18:41.756Z,20.70
2017-08-24T19:21:09.514Z,20.70
2017-08-24T19:23:37.267Z,20.70
2017-08-24T19:26:04.967Z,20.60
2017-08-24T19:28:34.542Z,20.50
2017-08-24T19:31:03.431Z,20.40
2017-08-24T19:33:33.021Z,20.40
2017-08-24T19:36:01.547Z,20.40
2017-08-24T19:38:32.364Z,20.20
2017-08-24T19:41:00.897Z,20.10
2017-08-24T19:43:29.573Z,20.00
2017-08-24T19:45:58.124Z,19.90
2017-08-24T19:48:26.498Z,19.90
2017-08-24T19:50:54.523Z,19.80
2017-08-24T19:53:22.959Z,19.70
2017-08-24T19:55:51.662Z,19.80
2017-08-24T19:58:19.965Z,19.80
2017-08-24T20:00:47.796Z,19.70
2017-08-24T20:03:17.322Z,19.70
2017-08-24T20:05:46.294Z,19.70
2017-08-24T20:08:15.436Z,19.70
2017-08-24T20:10:44.274Z,19.70
2017-08-24T20:13:12.974Z,19.60
2017-08-24T20:15:41.820Z,19.60
2017-08-24T20:18:09.706Z,19.50
2017-08-24T20:20:37.694Z,19.50
2017-08-24T20:23:07.414Z,19.40
2017-08-24T20:25:35.696Z,19.50
2017-08-24T20:28:03.752Z,19.40
2017-08-24T20:30:32.498Z,19.40
2017-08-24T20:33:00.298Z,19.50
2017-08-24T20:35:30.356Z,19.40
2017-08-24T20:37:59.589Z,19.30
2017-08-24T20:40:27.487Z,19.30
2017-08-24T20:42:55.191Z,19.20
2017-08-24T20:45:22.900Z,19.20
2017-08-24T20:47:51.640Z,19.20
2017-08-24T20:50:20.278Z,19.20
2017-08-24T20:52:48.284Z,19.20
2017-08-24T20:55:19.208Z,19.00
2017-08-24T20:57:46.967Z,19.00
2017-08-24T21:00:14.718Z,18.80
2017-08-24T21:02:42.598Z,18.70
2017-08-24T21:05:10.163Z,18.60
2017-08-24T21:07:37.719Z,18.50
2017-08-24T21:10:05.289Z,18.50
2017-08-24T21:12:32.846Z,18.50
2017-08-24T21:15:00.414Z,18.50
2017-08-24T21:17:27.946Z,18.40
2017-08-24T21:19:55.489Z,18.30
2017-08-24T21:22:23.078Z,18.30
2017-08-24T21:24:52.071Z,18.30
2017-08-24T21:27:19.629Z,18.20
2017-08-24T21:29:47.925Z,18.20
2017-08-24T21:32:15.480Z,18.10
2017-08-24T21:34:44.730Z,18.00
2017-08-24T21:37:12.381Z,18.00
2017-08-24T21:39:39.939Z,18.00
2017-08-24T21:42:07.502Z,18.10
2017-08-24T21:44:35.056Z,18.00
2017-08-24T21:47:02.619Z,17.90
2017-08-24T21:49:30.146Z,18.00
2017-08-24T21:51:57.668Z,18.00
2017-08-24T21:54:25.224Z,17.90
2017-08-24T21:56:52.748Z,17.90
2017-08-24T21:59:20.309Z,17.90
2017-08-24T22:01:47.841Z,17.80
2017-08-24T22:04:15.410Z,17.90
2017-08-24T22:06:42.941Z,17.90
2017-08-24T22:09:10.490Z,17.90
2017-08-24T22:11:38.021Z,17.80
2017-08-24T22:14:05.585Z,17.70
2017-08-24T22:16:33.909Z,17.70
2017-08-24T22:19:01.429Z,17.70
2017-08-24T22:21:28.974Z,17.60
2017-08-24T22:23:56.550Z,17.50
2017-08-24T22:26:24.101Z,17.60
2017-08-24T22:28:51.663Z,17.40
2017-08-24T22:31:19.213Z,17.40
2017-08-24T22:33:46.745Z,17.40
2017-08-24T22:36:14.293Z,17.40
2017-08-24T22:38:41.847Z,17.40
2017-08-24T22:41:09.412Z,17.40
2017-08-24T22:43:36.937Z,17.30
2017-08-24T22:46:04.461Z,17.30
2017-08-24T22:48:32.014Z,17.30
2017-08-24T22:50:59.594Z,17.30
2017-08-24T22:53:48.033Z,17.40
2017-08-24T22:56:21.357Z,17.30
2017-08-24T22:58:54.697Z,17.30
2017-08-24T23:01:39.974Z,17.30
2017-08-24T23:04:07.530Z,17.40
2017-08-24T23:06:35.065Z,17.50
2017-08-24T23:09:02.618Z,17.60
2017-08-24T23:11:30.149Z,17.60
2017-08-24T23:13:57.677Z,17.50
2017-08-24T23:16:25.240Z,17.50
2017-08-24T23:18:52.800Z,17.60
2017-08-24T23:21:20.360Z,17.60
2017-08-24T23:23:47.901Z,17.70
2017-08-24T23:26:15.456Z,17.80
2017-08-24T23:28:42.989Z,17.70
2017-08-24T23:31:10.523Z,17.70
2017-08-24T23:33:38.069Z,17.80
2017-08-24T23:36:05.592Z,17.80
2017-08-24T23:38:33.144Z,17.80
2017-08-24T23:41:00.664Z,17.80
2017-08-24T23:43:28.212Z,17.80
2017-08-24T23:45:55.737Z,17.90
2017-08-24T23:48:23.298Z,17.90
2017-08-24T23:50:50.881Z,17.90
2017-08-24T23:53:18.423Z,18.00
2017-08-24T23:55:45.994Z,17.90
2017-08-24T23:58:13.541Z,17.90
